createdAt,value
2019-01-19T00:00:32.276Z,-4.10
2019-01-19T00:03:11.702Z,-4.00
2019-01-19T00:05:47.931Z,-4.00
2019-01-19T00:08:22.332Z,-4.00
2019-01-19T00:11:07.936Z,-4.00
2019-01-19T00:13:50.252Z,-4.10
2019-01-19T00:16:38.443Z,-4.10
2019-01-19T00:19:30.415Z,-4.10
2019-01-19T00:22:09.330Z,-4.10
2019-01-19T00:24:42.920Z,-4.10
2019-01-19T00:27:19.040Z,-4.20
2019-01-19T00:29:58.586Z,-4.20
2019-01-19T00:32:34.668Z,-4.20
2019-01-19T00:35:20.002Z,-4.20
2019-01-19T00:37:59.285Z,-4.20
2019-01-19T00:40:52.449Z,-4.30
2019-01-19T00:43:23.104Z,-4.30
2019-01-19T00:45:59.218Z,-4.30
2019-01-19T00:48:38.468Z,-4.30
2019-01-19T00:51:17.629Z,-4.30
2019-01-19T00:54:00.204Z,-4.20
2019-01-19T00:56:48.699Z,-4.30
2019-01-19T00:59:22.728Z,-4.30
2019-01-19T01:02:22.010Z,-4.20
2019-01-19T01:05:12.012Z,-4.30
2019-01-19T01:08:06.824Z,-4.30
2019-01-19T01:10:43.064Z,-4.30
2019-01-19T01:13:30.768Z,-4.30
2019-01-19T01:16:13.237Z,-4.30
2019-01-19T01:18:49.543Z,-4.30
2019-01-19T01:21:32.459Z,-4.20
2019-01-19T01:24:11.887Z,-4.20
2019-01-19T01:26:55.299Z,-4.20
2019-01-19T01:29:31.845Z,-4.10
2019-01-19T01:32:05.586Z,-4.10
2019-01-19T01:35:12.381Z,-4.10
2019-01-19T01:37:51.653Z,-4.10
2019-01-19T01:40:30.506Z,-4.10
2019-01-19T01:43:06.758Z,-4.00
2019-01-19T01:46:01.265Z,-4.00
2019-01-19T01:48:55.862Z,-4.00
2019-01-19T01:51:32.073Z,-4.00
2019-01-19T01:54:11.242Z,-4.00
2019-01-19T01:56:41.630Z,-4.00
2019-01-19T01:59:41.832Z,-4.00
2019-01-19T02:02:36.143Z,-4.10
2019-01-19T02:05:18.524Z,-4.10
2019-01-19T02:08:01.024Z,-4.10
2019-01-19T02:10:52.425Z,-4.10
2019-01-19T02:13:25.744Z,-4.00
2019-01-19T02:16:23.481Z,-4.00
2019-01-19T02:18:56.863Z,-4.10
2019-01-19T02:21:36.202Z,-4.10
2019-01-19T02:24:18.504Z,-4.10
2019-01-19T02:27:00.725Z,-4.10
2019-01-19T02:29:52.337Z,-4.10
2019-01-19T02:32:34.408Z,-4.10
2019-01-19T02:35:19.861Z,-4.10
2019-01-19T02:37:53.092Z,-4.10
2019-01-19T02:40:48.384Z,-4.10
2019-01-19T02:43:30.328Z,-4.10
2019-01-19T02:46:09.509Z,-4.10
2019-01-19T02:49:01.165Z,-4.00
2019-01-19T02:51:46.487Z,-4.00
2019-01-19T02:54:25.635Z,-4.00
2019-01-19T02:57:07.871Z,-4.00
2019-01-19T03:00:06.007Z,-4.00
2019-01-19T03:02:51.645Z,-4.10
2019-01-19T03:05:25.373Z,-4.10
2019-01-19T03:07:58.718Z,-4.20
2019-01-19T03:10:34.961Z,-4.20
2019-01-19T03:13:20.565Z,-4.10
2019-01-19T03:16:13.684Z,-4.20
2019-01-19T03:19:12.729Z,-4.20
2019-01-19T03:21:51.805Z,-4.20
2019-01-19T03:24:34.168Z,-4.30
2019-01-19T03:27:13.369Z,-4.20
2019-01-19T03:30:04.831Z,-4.30
2019-01-19T03:32:56.679Z,-4.30
2019-01-19T03:35:32.755Z,-4.20
2019-01-19T03:38:18.111Z,-4.20
2019-01-19T03:40:57.560Z,-4.30
2019-01-19T03:43:48.927Z,-4.30
2019-01-19T03:46:34.476Z,-4.30
2019-01-19T03:49:22.919Z,-4.30
2019-01-19T03:51:58.836Z,-4.20
2019-01-19T03:55:04.035Z,-4.20
2019-01-19T03:57:40.197Z,-4.20
2019-01-19T04:00:19.166Z,-4.20
2019-01-19T04:03:10.456Z,-4.20
2019-01-19T04:05:55.524Z,-4.20
2019-01-19T04:08:37.608Z,-4.20
2019-01-19T04:11:19.977Z,-4.30
2019-01-19T04:14:11.984Z,-4.30
2019-01-19T04:16:50.555Z,-4.30
2019-01-19T04:19:32.787Z,-4.30
2019-01-19T04:22:08.684Z,-4.40
2019-01-19T04:24:42.156Z,-4.40
2019-01-19T04:27:12.460Z,-4.40
2019-01-19T04:29:42.702Z,-4.40
2019-01-19T04:32:13.311Z,-4.40
2019-01-19T04:34:44.363Z,-4.50
2019-01-19T04:37:15.142Z,-4.50
2019-01-19T04:39:45.442Z,-4.40
2019-01-19T04:42:15.841Z,-4.50
2019-01-19T04:44:46.453Z,-4.50
2019-01-19T04:47:16.889Z,-4.60
2019-01-19T04:49:47.576Z,-4.60
2019-01-19T04:52:18.018Z,-4.60
2019-01-19T04:54:48.463Z,-4.60
2019-01-19T04:57:18.939Z,-4.60
2019-01-19T04:59:49.327Z,-4.70
2019-01-19T05:02:20.010Z,-4.70
2019-01-19T05:04:50.439Z,-4.60
2019-01-19T05:07:21.178Z,-4.60
2019-01-19T05:09:51.565Z,-4.60
2019-01-19T05:12:22.221Z,-4.60
2019-01-19T05:14:52.958Z,-4.70
2019-01-19T05:17:23.741Z,-4.70
2019-01-19T05:19:54.550Z,-4.70
2019-01-19T05:22:25.121Z,-4.80
2019-01-19T05:24:55.730Z,-4.80
2019-01-19T05:27:26.292Z,-4.80
2019-01-19T05:29:56.710Z,-4.90
2019-01-19T05:32:27.713Z,-4.90
2019-01-19T05:34:58.907Z,-5.00
2019-01-19T05:37:29.325Z,-4.90
2019-01-19T05:40:00.049Z,-5.00
2019-01-19T05:42:30.707Z,-5.10
2019-01-19T05:45:01.241Z,-5.10
2019-01-19T05:47:32.127Z,-5.10
2019-01-19T05:50:03.797Z,-5.10
2019-01-19T05:52:34.262Z,-5.10
2019-01-19T05:55:06.592Z,-5.20
2019-01-19T05:57:36.987Z,-5.20
2019-01-19T06:00:13.273Z,-5.20
2019-01-19T06:02:43.742Z,-5.20
2019-01-19T06:05:15.079Z,-5.20
2019-01-19T06:07:45.648Z,-5.20
2019-01-19T06:10:17.468Z,-5.20
2019-01-19T06:12:47.772Z,-5.20
2019-01-19T06:15:18.804Z,-5.10
2019-01-19T06:17:49.162Z,-5.10
2019-01-19T06:20:19.546Z,-5.10
2019-01-19T06:22:49.828Z,-5.20
2019-01-19T06:25:20.424Z,-5.10
2019-01-19T06:27:51.057Z,-5.10
2019-01-19T06:30:23.416Z,-5.10
2019-01-19T06:32:55.630Z,-5.20
2019-01-19T06:35:26.029Z,-5.20
2019-01-19T06:37:56.472Z,-5.20
2019-01-19T06:43:01.861Z,-5.20
2019-01-19T06:45:32.337Z,-5.10
2019-01-19T06:48:02.729Z,-5.00
2019-01-19T06:50:33.157Z,-5.10
2019-01-19T06:53:03.644Z,-5.10
2019-01-19T06:55:34.218Z,-5.10
2019-01-19T06:58:04.687Z,-5.10
2019-01-19T07:00:35.191Z,-5.00
2019-01-19T07:03:07.433Z,-5.00
2019-01-19T07:05:38.113Z,-5.00
2019-01-19T07:08:08.435Z,-5.00
2019-01-19T07:10:38.887Z,-5.00
2019-01-19T07:13:09.268Z,-5.10
2019-01-19T07:15:39.929Z,-5.00
2019-01-19T07:18:10.436Z,-5.00
2019-01-19T07:20:40.857Z,-5.00
2019-01-19T07:23:11.302Z,-5.00
2019-01-19T07:25:41.686Z,-5.00
2019-01-19T07:28:12.387Z,-5.00
2019-01-19T07:30:42.906Z,-5.00
2019-01-19T07:33:13.307Z,-5.10
2019-01-19T07:35:43.847Z,-5.10
2019-01-19T07:38:14.561Z,-5.10
2019-01-19T07:40:45.375Z,-5.10
2019-01-19T07:43:15.880Z,-5.10
2019-01-19T07:45:46.398Z,-5.10
2019-01-19T07:48:17.162Z,-5.00
2019-01-19T07:50:47.697Z,-5.00
2019-01-19T07:53:18.106Z,-4.90
2019-01-19T07:55:48.753Z,-4.80
2019-01-19T07:58:19.295Z,-4.70
2019-01-19T08:00:49.933Z,-4.70
2019-01-19T08:03:20.454Z,-4.70
2019-01-19T08:05:51.221Z,-4.60
2019-01-19T08:08:21.970Z,-4.60
2019-01-19T08:10:52.428Z,-4.50
2019-01-19T08:13:23.490Z,-4.40
2019-01-19T08:15:54.058Z,-4.30
2019-01-19T08:18:24.877Z,-4.20
2019-01-19T08:20:56.503Z,-4.20
2019-01-19T08:23:27.412Z,-4.10
2019-01-19T08:25:58.150Z,-4.10
2019-01-19T08:28:30.245Z,-4.00
2019-01-19T08:31:01.377Z,-4.00
2019-01-19T08:33:32.133Z,-3.90
2019-01-19T08:36:04.559Z,-3.90
2019-01-19T08:38:35.358Z,-3.80
2019-01-19T08:41:06.277Z,-3.80
2019-01-19T08:43:41.177Z,-3.70
2019-01-19T08:46:15.293Z,-3.60
2019-01-19T08:48:45.835Z,-3.60
2019-01-19T08:51:17.025Z,-3.50
2019-01-19T08:53:47.873Z,-3.50
2019-01-19T08:56:18.531Z,-3.40
2019-01-19T08:58:49.400Z,-3.40
2019-01-19T09:01:20.137Z,-3.30
2019-01-19T09:03:50.865Z,-3.30
2019-01-19T09:06:21.288Z,-3.20
2019-01-19T09:08:51.751Z,-3.20
2019-01-19T09:11:22.202Z,-3.10
2019-01-19T09:13:52.900Z,-3.10
2019-01-19T09:16:23.446Z,-3.10
2019-01-19T09:18:54.181Z,-3.10
2019-01-19T09:21:24.793Z,-3.00
2019-01-19T09:23:58.180Z,-3.00
2019-01-19T09:26:29.080Z,-2.90
2019-01-19T09:29:00.291Z,-2.90
2019-01-19T09:31:31.462Z,-2.80
2019-01-19T09:34:02.407Z,-2.80
2019-01-19T09:36:40.245Z,-2.70
2019-01-19T09:39:23.104Z,-2.70
2019-01-19T09:42:01.767Z,-2.60
2019-01-19T09:44:32.297Z,-2.60
2019-01-19T09:47:03.533Z,-2.50
2019-01-19T09:49:34.363Z,-2.50
2019-01-19T09:52:05.226Z,-2.50
2019-01-19T09:54:37.699Z,-2.40
2019-01-19T09:57:08.637Z,-2.40
2019-01-19T09:59:39.416Z,-2.30
2019-01-19T10:02:10.053Z,-2.30
2019-01-19T10:04:42.555Z,-2.20
2019-01-19T10:07:15.315Z,-2.20
2019-01-19T10:09:46.681Z,-2.10
2019-01-19T10:12:17.587Z,-2.10
2019-01-19T10:14:48.493Z,-2.10
2019-01-19T10:17:19.082Z,-2.00
2019-01-19T10:19:50.041Z,-1.90
2019-01-19T10:22:20.653Z,-1.90
2019-01-19T10:24:51.766Z,-1.80
2019-01-19T10:27:22.768Z,-1.80
2019-01-19T10:29:56.582Z,-1.70
2019-01-19T10:32:27.777Z,-1.70
2019-01-19T10:34:58.280Z,-1.60
2019-01-19T10:37:28.957Z,-1.60
2019-01-19T10:39:59.449Z,-1.60
2019-01-19T10:42:29.842Z,-1.60
2019-01-19T10:45:00.286Z,-1.50
2019-01-19T10:47:31.037Z,-1.50
2019-01-19T10:50:01.531Z,-1.40
2019-01-19T10:52:33.701Z,-1.40
2019-01-19T10:55:04.874Z,-1.40
2019-01-19T10:57:35.437Z,-1.30
2019-01-19T11:00:20.737Z,-1.30
2019-01-19T11:02:51.214Z,-1.20
2019-01-19T11:05:21.679Z,-1.20
2019-01-19T11:07:52.227Z,-1.10
2019-01-19T11:10:33.152Z,-1.10
2019-01-19T11:13:03.732Z,-1.10
2019-01-19T11:15:34.184Z,-1.00
2019-01-19T11:18:04.919Z,-0.90
2019-01-19T11:20:35.396Z,-0.90
2019-01-19T11:23:05.937Z,-0.80
2019-01-19T11:25:36.476Z,-0.80
2019-01-19T11:28:08.786Z,-0.80
2019-01-19T11:30:39.273Z,-0.80
2019-01-19T11:33:11.421Z,-0.70
2019-01-19T11:35:41.970Z,-0.70
2019-01-19T11:38:12.468Z,-0.60
2019-01-19T11:40:43.084Z,-0.60
2019-01-19T11:43:13.585Z,-0.60
2019-01-19T11:45:44.065Z,-0.50
2019-01-19T11:48:14.829Z,-0.60
2019-01-19T11:50:46.513Z,-0.60
2019-01-19T11:53:17.021Z,-0.50
2019-01-19T11:55:47.450Z,-0.40
2019-01-19T11:58:18.137Z,-0.40
2019-01-19T12:00:48.896Z,-0.40
2019-01-19T12:03:19.461Z,-0.40
2019-01-19T12:05:50.109Z,-0.40
2019-01-19T12:08:20.590Z,-0.30
2019-01-19T12:10:51.159Z,-0.30
2019-01-19T12:13:21.618Z,-0.30
2019-01-19T12:15:53.149Z,-0.20
2019-01-19T12:18:23.773Z,-0.20
2019-01-19T12:20:54.156Z,-0.20
2019-01-19T12:23:24.645Z,-0.20
2019-01-19T12:25:55.180Z,-0.20
2019-01-19T12:28:25.752Z,-0.10
2019-01-19T12:30:56.420Z,-0.10
2019-01-19T12:33:26.937Z,-0.10
2019-01-19T12:35:57.748Z,0.00
2019-01-19T12:38:28.485Z,0.00
2019-01-19T12:40:59.052Z,0.00
2019-01-19T12:43:29.374Z,0.00
2019-01-19T12:46:00.005Z,0.10
2019-01-19T12:48:30.708Z,0.10
2019-01-19T12:51:01.423Z,0.20
2019-01-19T12:53:31.948Z,0.20
2019-01-19T12:56:02.404Z,0.20
2019-01-19T12:58:32.761Z,0.20
2019-01-19T13:01:03.263Z,0.20
2019-01-19T13:03:33.793Z,0.30
2019-01-19T13:06:07.234Z,0.30
2019-01-19T13:08:37.589Z,0.30
2019-01-19T13:11:25.635Z,0.30
2019-01-19T13:14:03.068Z,0.40
2019-01-19T13:16:46.317Z,0.40
2019-01-19T13:19:19.960Z,0.40
2019-01-19T13:22:14.864Z,0.50
2019-01-19T13:24:51.302Z,0.50
2019-01-19T13:27:43.052Z,0.50
2019-01-19T13:30:28.849Z,0.50
2019-01-19T13:33:23.550Z,0.50
2019-01-19T13:36:14.134Z,0.60
2019-01-19T13:38:56.603Z,0.60
2019-01-19T13:41:38.507Z,0.60
2019-01-19T13:44:27.793Z,0.70
2019-01-19T13:47:16.709Z,0.70
2019-01-19T13:50:20.061Z,0.70
2019-01-19T13:53:19.981Z,0.70
2019-01-19T13:56:20.446Z,0.70
2019-01-19T13:59:02.389Z,0.70
2019-01-19T14:01:53.815Z,0.80
2019-01-19T14:04:33.410Z,0.80
2019-01-19T14:07:17.921Z,0.80
2019-01-19T14:09:54.221Z,0.80
2019-01-19T14:12:27.764Z,0.80
2019-01-19T14:15:07.121Z,0.80
2019-01-19T14:18:06.378Z,0.80
2019-01-19T14:20:42.397Z,0.80
2019-01-19T14:23:21.899Z,0.80
2019-01-19T14:26:18.137Z,0.80
2019-01-19T14:28:54.222Z,0.80
2019-01-19T14:31:36.707Z,0.80
2019-01-19T14:34:15.914Z,0.80
2019-01-19T14:37:01.104Z,0.80
2019-01-19T14:39:43.717Z,0.80
2019-01-19T14:42:22.973Z,0.80
2019-01-19T14:45:13.658Z,0.80
2019-01-19T14:47:50.952Z,0.90
2019-01-19T14:50:25.384Z,0.80
2019-01-19T14:53:35.559Z,0.80
2019-01-19T14:56:32.744Z,0.80
2019-01-19T14:59:14.551Z,0.80
2019-01-19T15:02:20.572Z,0.80
2019-01-19T15:04:54.030Z,0.80
2019-01-19T15:07:42.679Z,0.80
2019-01-19T15:10:22.049Z,0.70
2019-01-19T15:13:10.701Z,0.80
2019-01-19T15:15:55.125Z,0.70
2019-01-19T15:19:01.780Z,0.80
2019-01-19T15:21:45.344Z,0.80
2019-01-19T15:24:25.836Z,0.80
2019-01-19T15:26:59.298Z,0.80
2019-01-19T15:29:41.768Z,0.80
2019-01-19T15:32:24.077Z,0.80
2019-01-19T15:35:26.189Z,0.80
2019-01-19T15:38:14.597Z,0.80
2019-01-19T15:40:56.741Z,0.80
2019-01-19T15:43:52.982Z,0.80
2019-01-19T15:46:38.635Z,0.90
2019-01-19T15:49:30.316Z,0.90
2019-01-19T15:52:06.281Z,0.90
2019-01-19T15:54:39.634Z,0.90
2019-01-19T15:57:28.240Z,0.90
2019-01-19T16:00:19.942Z,0.90
2019-01-19T16:03:28.241Z,0.90
2019-01-19T16:06:22.787Z,0.90
2019-01-19T16:09:18.156Z,0.90
2019-01-19T16:12:01.184Z,0.90
2019-01-19T16:14:54.206Z,0.80
2019-01-19T16:17:33.503Z,0.80
2019-01-19T16:20:23.403Z,0.80
2019-01-19T16:23:19.458Z,0.80
2019-01-19T16:26:10.832Z,0.70
2019-01-19T16:28:50.170Z,0.80
2019-01-19T16:31:38.422Z,0.70
2019-01-19T16:34:17.774Z,0.70
2019-01-19T16:36:56.834Z,0.70
2019-01-19T16:39:30.185Z,0.70
2019-01-19T16:42:27.280Z,0.70
2019-01-19T16:45:04.024Z,0.60
2019-01-19T16:47:49.669Z,0.60
2019-01-19T16:50:40.961Z,0.60
2019-01-19T16:53:14.401Z,0.60
2019-01-19T16:56:02.596Z,0.60
2019-01-19T16:58:58.717Z,0.50
2019-01-19T17:01:58.002Z,0.60
2019-01-19T17:05:03.498Z,0.60
2019-01-19T17:07:39.483Z,0.50
2019-01-19T17:10:36.671Z,0.40
2019-01-19T17:13:28.565Z,0.50
2019-01-19T17:16:19.900Z,0.40
2019-01-19T17:19:20.846Z,0.40
2019-01-19T17:22:09.074Z,0.40
2019-01-19T17:25:02.285Z,0.30
2019-01-19T17:27:53.873Z,0.30
2019-01-19T17:30:27.363Z,0.30
2019-01-19T17:33:03.625Z,0.30
2019-01-19T17:35:42.893Z,0.30
2019-01-19T17:38:25.337Z,0.30
2019-01-19T17:40:58.772Z,0.20
2019-01-19T17:43:32.243Z,0.20
2019-01-19T17:46:05.663Z,0.20
2019-01-19T17:48:57.180Z,0.20
2019-01-19T17:51:33.396Z,0.20
2019-01-19T17:54:12.976Z,0.10
2019-01-19T17:57:01.268Z,0.20
2019-01-19T17:59:52.813Z,0.20
2019-01-19T18:02:41.282Z,0.10
2019-01-19T18:05:17.741Z,0.10
2019-01-19T18:07:57.104Z,0.10
2019-01-19T18:10:57.805Z,0.10
2019-01-19T18:13:33.796Z,0.10
2019-01-19T18:16:22.065Z,0.10
2019-01-19T18:19:15.869Z,0.10
2019-01-19T18:22:08.993Z,0.10
2019-01-19T18:24:44.825Z,0.00
2019-01-19T18:27:20.933Z,0.00
2019-01-19T18:30:30.654Z,0.00
2019-01-19T18:33:29.773Z,0.00
2019-01-19T18:36:11.717Z,-0.10
2019-01-19T18:39:01.852Z,-0.10
2019-01-19T18:41:52.026Z,-0.10
2019-01-19T18:44:28.156Z,-0.10
2019-01-19T18:47:18.157Z,-0.10
2019-01-19T18:50:12.521Z,-0.20
2019-01-19T18:52:57.473Z,-0.20
2019-01-19T18:55:45.802Z,-0.20
2019-01-19T18:58:28.133Z,-0.20
2019-01-19T19:01:20.155Z,-0.20
2019-01-19T19:04:16.211Z,-0.20
2019-01-19T19:07:29.614Z,-0.20
2019-01-19T19:10:11.636Z,-0.30
2019-01-19T19:13:00.158Z,-0.20
2019-01-19T19:15:55.221Z,-0.20
2019-01-19T19:18:53.030Z,-0.30
2019-01-19T19:21:45.194Z,-0.30
2019-01-19T19:24:27.074Z,-0.30
2019-01-19T19:27:09.709Z,-0.30
2019-01-19T19:30:14.977Z,-0.40
2019-01-19T19:33:03.861Z,-0.40
2019-01-19T19:35:55.874Z,-0.40
2019-01-19T19:38:47.752Z,-0.40
2019-01-19T19:41:44.358Z,-0.40
2019-01-19T19:44:44.010Z,-0.40
2019-01-19T19:47:26.538Z,-0.40
2019-01-19T19:50:27.163Z,-0.40
2019-01-19T19:52:57.754Z,-0.50
2019-01-19T19:55:27.283Z,-0.50
2019-01-19T19:57:57.814Z,-0.50
2019-01-19T20:00:28.532Z,-0.50
2019-01-19T20:02:59.332Z,-0.60
2019-01-19T20:05:29.954Z,-0.60
2019-01-19T20:08:00.450Z,-0.60
2019-01-19T20:10:31.014Z,-0.60
2019-01-19T20:13:01.920Z,-0.70
2019-01-19T20:15:32.447Z,-0.70
2019-01-19T20:18:02.937Z,-0.70
2019-01-19T20:20:33.449Z,-0.80
2019-01-19T20:23:05.971Z,-0.80
2019-01-19T20:25:36.327Z,-0.80
2019-01-19T20:28:06.734Z,-0.80
2019-01-19T20:30:37.301Z,-0.80
2019-01-19T20:33:07.900Z,-0.80
2019-01-19T20:35:38.372Z,-0.90
2019-01-19T20:38:08.974Z,-0.90
2019-01-19T20:40:39.368Z,-0.90
2019-01-19T20:43:09.760Z,-0.90
2019-01-19T20:45:40.290Z,-0.90
2019-01-19T20:48:10.826Z,-1.00
2019-01-19T20:50:41.421Z,-1.00
2019-01-19T20:53:11.796Z,-0.90
2019-01-19T20:55:42.453Z,-1.00
2019-01-19T20:58:13.355Z,-1.00
2019-01-19T21:00:43.823Z,-1.00
2019-01-19T21:03:14.237Z,-1.00
2019-01-19T21:05:44.633Z,-1.00
2019-01-19T21:08:15.211Z,-1.00
2019-01-19T21:10:45.574Z,-1.00
2019-01-19T21:13:15.847Z,-1.10
2019-01-19T21:15:46.666Z,-1.10
2019-01-19T21:18:17.496Z,-1.10
2019-01-19T21:20:47.964Z,-1.10
2019-01-19T21:23:18.531Z,-1.10
2019-01-19T21:25:49.073Z,-1.10
2019-01-19T21:28:19.512Z,-1.10
2019-01-19T21:30:50.189Z,-1.10
2019-01-19T21:33:20.637Z,-1.10
2019-01-19T21:35:51.116Z,-1.10
2019-01-19T21:38:21.497Z,-1.10
2019-01-19T21:40:52.127Z,-1.10
2019-01-19T21:43:22.642Z,-1.10
2019-01-19T21:45:53.224Z,-1.10
2019-01-19T21:48:23.674Z,-1.00
2019-01-19T21:50:54.387Z,-1.10
2019-01-19T21:53:25.102Z,-1.10
2019-01-19T21:55:55.633Z,-1.00
2019-01-19T21:58:28.049Z,-1.10
2019-01-19T22:01:00.353Z,-1.10
2019-01-19T22:03:31.643Z,-1.10
2019-01-19T22:06:02.394Z,-1.10
2019-01-19T22:08:32.914Z,-1.10
2019-01-19T22:11:03.554Z,-1.00
2019-01-19T22:13:34.263Z,-1.00
2019-01-19T22:16:04.797Z,-1.10
2019-01-19T22:18:35.389Z,-1.10
2019-01-19T22:21:06.058Z,-1.10
2019-01-19T22:23:36.361Z,-1.10
2019-01-19T22:26:08.604Z,-1.10
2019-01-19T22:28:39.032Z,-1.10
2019-01-19T22:31:09.520Z,-1.10
2019-01-19T22:33:40.201Z,-1.10
2019-01-19T22:36:10.623Z,-1.10
2019-01-19T22:38:40.929Z,-1.10
2019-01-19T22:41:12.697Z,-1.20
2019-01-19T22:43:43.631Z,-1.10
2019-01-19T22:46:14.347Z,-1.20
2019-01-19T22:48:44.756Z,-1.20
2019-01-19T22:51:15.197Z,-1.20
2019-01-19T22:53:45.692Z,-1.20
2019-01-19T22:56:16.605Z,-1.20
2019-01-19T22:58:47.128Z,-1.20
2019-01-19T23:01:23.397Z,-1.20
2019-01-19T23:03:53.973Z,-1.20
2019-01-19T23:06:24.745Z,-1.30
2019-01-19T23:08:55.402Z,-1.30
2019-01-19T23:11:33.662Z,-1.30
2019-01-19T23:14:00.525Z,-1.40
2019-01-19T23:16:30.915Z,-1.40
2019-01-19T23:19:03.053Z,-1.40
2019-01-19T23:21:33.501Z,-1.50
2019-01-19T23:24:04.385Z,-1.40
2019-01-19T23:26:35.306Z,-1.50
2019-01-19T23:29:05.751Z,-1.50
2019-01-19T23:31:36.290Z,-1.50
2019-01-19T23:34:06.872Z,-1.50
2019-01-19T23:36:37.265Z,-1.60
2019-01-19T23:39:08.021Z,-1.50
2019-01-19T23:41:38.453Z,-1.50
2019-01-19T23:44:09.137Z,-1.60
2019-01-19T23:46:39.561Z,-1.50
2019-01-19T23:49:10.223Z,-1.50
2019-01-19T23:51:40.886Z,-1.60
2019-01-19T23:54:11.637Z,-1.60
2019-01-19T23:56:42.031Z,-1.60
2019-01-19T23:59:12.391Z,-1.60
